sensor_id;sensor_type;location;lat;lon;timestamp;P1;durP1;ratioP1;P2;durP2;ratioP2
28353;SDS011;15603;50.878;8.036;2023-07-20T00:00:14;4.00;;;1.65;;
28353;SDS011;15603;50.878;8.036;2023-07-20T00:02:42;5.55;;;1.70;;
28353;SDS011;15603;50.878;8.036;2023-07-20T00:05:09;4.97;;;1.95;;
28353;SDS011;15603;50.878;8.036;2023-07-20T00:07:37;11.05;;;1.77;;
28353;SDS011;15603;50.878;8.036;2023-07-20T00:10:04;4.95;;;1.67;;
28353;SDS011;15603;50.878;8.036;2023-07-20T00:12:31;9.13;;;2.05;;
28353;SDS011;15603;50.878;8.036;2023-07-20T00:14:58;6.20;;;3.08;;
28353;SDS011;15603;50.878;8.036;2023-07-20T00:17:25;6.30;;;2.15;;
28353;SDS011;15603;50.878;8.036;2023-07-20T00:19:52;7.47;;;2.63;;
28353;SDS011;15603;50.878;8.036;2023-07-20T00:22:20;2.63;;;1.42;;
28353;SDS011;15603;50.878;8.036;2023-07-20T00:24:47;4.97;;;1.92;;
28353;SDS011;15603;50.878;8.036;2023-07-20T00:27:14;3.28;;;1.63;;
28353;SDS011;15603;50.878;8.036;2023-07-20T00:29:41;6.65;;;2.10;;
28353;SDS011;15603;50.878;8.036;2023-07-20T00:32:08;5.95;;;1.85;;
28353;SDS011;15603;50.878;8.036;2023-07-20T00:34:35;6.60;;;1.75;;
28353;SDS011;15603;50.878;8.036;2023-07-20T00:37:02;6.72;;;2.47;;
28353;SDS011;15603;50.878;8.036;2023-07-20T00:39:30;5.70;;;2.58;;
28353;SDS011;15603;50.878;8.036;2023-07-20T00:41:57;11.82;;;2.00;;
28353;SDS011;15603;50.878;8.036;2023-07-20T00:44:25;8.73;;;2.67;;
28353;SDS011;15603;50.878;8.036;2023-07-20T00:46:52;5.40;;;1.48;;
28353;SDS011;15603;50.878;8.036;2023-07-20T00:49:19;10.35;;;1.92;;
28353;SDS011;15603;50.878;8.036;2023-07-20T00:51:48;8.77;;;1.92;;
28353;SDS011;15603;50.878;8.036;2023-07-20T00:54:16;11.75;;;2.05;;
28353;SDS011;15603;50.878;8.036;2023-07-20T00:56:43;5.57;;;2.00;;
28353;SDS011;15603;50.878;8.036;2023-07-20T00:59:12;4.05;;;1.80;;
28353;SDS011;15603;50.878;8.036;2023-07-20T01:01:40;7.00;;;2.10;;
28353;SDS011;15603;50.878;8.036;2023-07-20T01:04:08;7.30;;;1.83;;
28353;SDS011;15603;50.878;8.036;2023-07-20T01:09:10;5.60;;;1.77;;
28353;SDS011;15603;50.878;8.036;2023-07-20T01:14:26;7.38;;;2.00;;
28353;SDS011;15603;50.878;8.036;2023-07-20T01:16:54;15.82;;;2.92;;
28353;SDS011;15603;50.878;8.036;2023-07-20T01:19:21;4.55;;;2.10;;
28353;SDS011;15603;50.878;8.036;2023-07-20T01:21:55;4.20;;;2.00;;
28353;SDS011;15603;50.878;8.036;2023-07-20T01:24:38;3.22;;;2.05;;
28353;SDS011;15603;50.878;8.036;2023-07-20T01:33:38;6.03;;;2.97;;
28353;SDS011;15603;50.878;8.036;2023-07-20T01:36:07;4.70;;;1.67;;
28353;SDS011;15603;50.878;8.036;2023-07-20T01:38:35;7.47;;;2.50;;
28353;SDS011;15603;50.878;8.036;2023-07-20T01:41:03;3.05;;;1.88;;
28353;SDS011;15603;50.878;8.036;2023-07-20T01:43:31;4.55;;;2.10;;
28353;SDS011;15603;50.878;8.036;2023-07-20T01:45:58;7.78;;;1.95;;
28353;SDS011;15603;50.878;8.036;2023-07-20T01:48:27;4.82;;;1.98;;
28353;SDS011;15603;50.878;8.036;2023-07-20T01:50:54;2.35;;;1.70;;
28353;SDS011;15603;50.878;8.036;2023-07-20T01:53:22;4.63;;;1.88;;
28353;SDS011;15603;50.878;8.036;2023-07-20T01:55:49;4.90;;;2.17;;
28353;SDS011;15603;50.878;8.036;2023-07-20T01:58:16;4.28;;;1.77;;
28353;SDS011;15603;50.878;8.036;2023-07-20T02:00:43;5.45;;;2.03;;
28353;SDS011;15603;50.878;8.036;2023-07-20T02:03:10;5.70;;;2.38;;
28353;SDS011;15603;50.878;8.036;2023-07-20T02:05:39;3.83;;;1.70;;
28353;SDS011;15603;50.878;8.036;2023-07-20T02:08:06;4.50;;;2.35;;
28353;SDS011;15603;50.878;8.036;2023-07-20T02:10:33;11.48;;;2.65;;
28353;SDS011;15603;50.878;8.036;2023-07-20T02:13:00;6.18;;;2.13;;
28353;SDS011;15603;50.878;8.036;2023-07-20T02:15:27;4.60;;;2.30;;
28353;SDS011;15603;50.878;8.036;2023-07-20T02:17:55;16.73;;;2.40;;
28353;SDS011;15603;50.878;8.036;2023-07-20T02:20:22;9.55;;;3.00;;
28353;SDS011;15603;50.878;8.036;2023-07-20T02:22:49;12.25;;;2.53;;
28353;SDS011;15603;50.878;8.036;2023-07-20T02:25:17;9.98;;;3.13;;
28353;SDS011;15603;50.878;8.036;2023-07-20T02:27:46;14.90;;;2.25;;
28353;SDS011;15603;50.878;8.036;2023-07-20T02:30:13;7.80;;;2.28;;
28353;SDS011;15603;50.878;8.036;2023-07-20T02:32:40;7.72;;;2.13;;
28353;SDS011;15603;50.878;8.036;2023-07-20T02:35:07;11.43;;;2.58;;
28353;SDS011;15603;50.878;8.036;2023-07-20T02:37:34;10.65;;;2.38;;
28353;SDS011;15603;50.878;8.036;2023-07-20T02:40:01;7.95;;;2.15;;
28353;SDS011;15603;50.878;8.036;2023-07-20T02:42:34;7.22;;;2.40;;
28353;SDS011;15603;50.878;8.036;2023-07-20T02:45:02;4.50;;;1.80;;
28353;SDS011;15603;50.878;8.036;2023-07-20T02:47:31;5.93;;;1.85;;
28353;SDS011;15603;50.878;8.036;2023-07-20T02:49:58;4.88;;;2.22;;
28353;SDS011;15603;50.878;8.036;2023-07-20T02:52:26;4.55;;;2.17;;
28353;SDS011;15603;50.878;8.036;2023-07-20T02:54:53;6.95;;;1.90;;
28353;SDS011;15603;50.878;8.036;2023-07-20T02:57:20;5.55;;;1.90;;
28353;SDS011;15603;50.878;8.036;2023-07-20T02:59:47;7.07;;;1.80;;
28353;SDS011;15603;50.878;8.036;2023-07-20T03:02:14;7.03;;;2.35;;
28353;SDS011;15603;50.878;8.036;2023-07-20T03:04:41;5.10;;;2.63;;
28353;SDS011;15603;50.878;8.036;2023-07-20T03:07:08;5.35;;;1.90;;
28353;SDS011;15603;50.878;8.036;2023-07-20T03:09:36;4.82;;;2.30;;
28353;SDS011;15603;50.878;8.036;2023-07-20T03:12:03;3.85;;;1.90;;
28353;SDS011;15603;50.878;8.036;2023-07-20T03:14:31;8.07;;;2.60;;
28353;SDS011;15603;50.878;8.036;2023-07-20T03:16:59;5.43;;;1.85;;
28353;SDS011;15603;50.878;8.036;2023-07-20T03:19:26;8.52;;;2.03;;
28353;SDS011;15603;50.878;8.036;2023-07-20T03:21:54;6.70;;;1.85;;
28353;SDS011;15603;50.878;8.036;2023-07-20T03:24:22;4.40;;;2.10;;
28353;SDS011;15603;50.878;8.036;2023-07-20T03:26:50;5.20;;;2.20;;
28353;SDS011;15603;50.878;8.036;2023-07-20T03:29:18;6.10;;;2.15;;
28353;SDS011;15603;50.878;8.036;2023-07-20T03:31:46;7.13;;;2.15;;
28353;SDS011;15603;50.878;8.036;2023-07-20T03:34:13;5.50;;;2.13;;
28353;SDS011;15603;50.878;8.036;2023-07-20T03:36:42;6.65;;;2.20;;
28353;SDS011;15603;50.878;8.036;2023-07-20T03:39:11;7.40;;;2.40;;
28353;SDS011;15603;50.878;8.036;2023-07-20T03:41:38;7.03;;;2.33;;
28353;SDS011;15603;50.878;8.036;2023-07-20T03:44:05;4.10;;;2.08;;
28353;SDS011;15603;50.878;8.036;2023-07-20T03:46:32;6.20;;;2.85;;
28353;SDS011;15603;50.878;8.036;2023-07-20T03:49:01;4.95;;;2.22;;
28353;SDS011;15603;50.878;8.036;2023-07-20T03:51:28;4.03;;;2.00;;
28353;SDS011;15603;50.878;8.036;2023-07-20T03:53:57;6.93;;;2.28;;
28353;SDS011;15603;50.878;8.036;2023-07-20T03:56:24;4.43;;;2.10;;
28353;SDS011;15603;50.878;8.036;2023-07-20T03:58:52;5.88;;;2.58;;
28353;SDS011;15603;50.878;8.036;2023-07-20T04:01:19;5.45;;;2.15;;
28353;SDS011;15603;50.878;8.036;2023-07-20T04:03:46;4.43;;;2.50;;
28353;SDS011;15603;50.878;8.036;2023-07-20T04:06:16;6.15;;;2.28;;
28353;SDS011;15603;50.878;8.036;2023-07-20T04:08:44;5.70;;;2.00;;
28353;SDS011;15603;50.878;8.036;2023-07-20T04:11:13;6.10;;;2.30;;
28353;SDS011;15603;50.878;8.036;2023-07-20T04:13:41;5.45;;;2.78;;
28353;SDS011;15603;50.878;8.036;2023-07-20T04:16:08;6.35;;;2.72;;
28353;SDS011;15603;50.878;8.036;2023-07-20T04:18:35;6.78;;;3.30;;
28353;SDS011;15603;50.878;8.036;2023-07-20T04:21:02;6.05;;;2.65;;
28353;SDS011;15603;50.878;8.036;2023-07-20T04:23:29;5.40;;;2.65;;
28353;SDS011;15603;50.878;8.036;2023-07-20T04:25:56;9.40;;;3.17;;
28353;SDS011;15603;50.878;8.036;2023-07-20T04:28:23;5.97;;;2.88;;
28353;SDS011;15603;50.878;8.036;2023-07-20T04:30:52;7.20;;;3.42;;
28353;SDS011;15603;50.878;8.036;2023-07-20T04:33:19;6.50;;;2.95;;
28353;SDS011;15603;50.878;8.036;2023-07-20T04:38:22;5.90;;;2.67;;
28353;SDS011;15603;50.878;8.036;2023-07-20T04:40:59;8.68;;;3.22;;
28353;SDS011;15603;50.878;8.036;2023-07-20T04:43:28;6.20;;;2.28;;
28353;SDS011;15603;50.878;8.036;2023-07-20T04:45:56;4.90;;;2.75;;
28353;SDS011;15603;50.878;8.036;2023-07-20T04:48:23;6.60;;;2.72;;
28353;SDS011;15603;50.878;8.036;2023-07-20T04:50:53;10.93;;;3.60;;
28353;SDS011;15603;50.878;8.036;2023-07-20T04:53:20;6.30;;;3.25;;
28353;SDS011;15603;50.878;8.036;2023-07-20T04:55:49;8.80;;;3.20;;
28353;SDS011;15603;50.878;8.036;2023-07-20T04:58:23;7.47;;;3.80;;
28353;SDS011;15603;50.878;8.036;2023-07-20T05:00:51;7.43;;;3.58;;
28353;SDS011;15603;50.878;8.036;2023-07-20T05:03:19;10.48;;;4.43;;
28353;SDS011;15603;50.878;8.036;2023-07-20T05:05:47;11.90;;;4.85;;
28353;SDS011;15603;50.878;8.036;2023-07-20T05:08:16;7.38;;;4.15;;
28353;SDS011;15603;50.878;8.036;2023-07-20T05:10:44;9.25;;;4.80;;
28353;SDS011;15603;50.878;8.036;2023-07-20T05:13:11;12.07;;;5.68;;
28353;SDS011;15603;50.878;8.036;2023-07-20T05:15:38;11.88;;;6.05;;
28353;SDS011;15603;50.878;8.036;2023-07-20T05:18:10;8.07;;;5.38;;
28353;SDS011;15603;50.878;8.036;2023-07-20T05:20:37;12.25;;;6.57;;
28353;SDS011;15603;50.878;8.036;2023-07-20T05:23:04;17.70;;;7.25;;
28353;SDS011;15603;50.878;8.036;2023-07-20T05:25:32;12.35;;;5.75;;
28353;SDS011;15603;50.878;8.036;2023-07-20T05:27:59;18.35;;;7.88;;
28353;SDS011;15603;50.878;8.036;2023-07-20T05:30:26;15.25;;;7.68;;
28353;SDS011;15603;50.878;8.036;2023-07-20T05:32:55;15.10;;;8.25;;
28353;SDS011;15603;50.878;8.036;2023-07-20T05:35:23;15.52;;;7.82;;
28353;SDS011;15603;50.878;8.036;2023-07-20T05:37:50;15.82;;;8.93;;
28353;SDS011;15603;50.878;8.036;2023-07-20T05:40:18;19.27;;;8.48;;
28353;SDS011;15603;50.878;8.036;2023-07-20T05:42:46;12.75;;;7.10;;
28353;SDS011;15603;50.878;8.036;2023-07-20T05:45:15;14.68;;;7.28;;
28353;SDS011;15603;50.878;8.036;2023-07-20T05:47:43;12.85;;;7.03;;
28353;SDS011;15603;50.878;8.036;2023-07-20T05:50:10;10.43;;;6.38;;
28353;SDS011;15603;50.878;8.036;2023-07-20T05:52:37;14.15;;;7.93;;
28353;SDS011;15603;50.878;8.036;2023-07-20T05:55:06;14.70;;;7.20;;
28353;SDS011;15603;50.878;8.036;2023-07-20T05:57:34;11.68;;;7.13;;
28353;SDS011;15603;50.878;8.036;2023-07-20T06:00:02;16.67;;;7.57;;
28353;SDS011;15603;50.878;8.036;2023-07-20T06:02:38;14.68;;;6.50;;
28353;SDS011;15603;50.878;8.036;2023-07-20T06:05:06;20.55;;;6.28;;
28353;SDS011;15603;50.878;8.036;2023-07-20T06:07:37;10.18;;;6.32;;
28353;SDS011;15603;50.878;8.036;2023-07-20T06:10:05;8.80;;;6.32;;
28353;SDS011;15603;50.878;8.036;2023-07-20T06:12:32;8.98;;;5.80;;
28353;SDS011;15603;50.878;8.036;2023-07-20T06:15:03;8.88;;;5.70;;
28353;SDS011;15603;50.878;8.036;2023-07-20T06:17:32;9.40;;;6.03;;
28353;SDS011;15603;50.878;8.036;2023-07-20T06:19:59;8.13;;;4.78;;
28353;SDS011;15603;50.878;8.036;2023-07-20T06:22:26;8.13;;;5.13;;
28353;SDS011;15603;50.878;8.036;2023-07-20T06:24:54;6.72;;;4.63;;
28353;SDS011;15603;50.878;8.036;2023-07-20T06:27:21;8.38;;;5.53;;
28353;SDS011;15603;50.878;8.036;2023-07-20T06:29:48;10.05;;;4.97;;
28353;SDS011;15603;50.878;8.036;2023-07-20T06:32:15;8.82;;;5.25;;
28353;SDS011;15603;50.878;8.036;2023-07-20T06:34:42;9.10;;;5.45;;
28353;SDS011;15603;50.878;8.036;2023-07-20T06:37:09;9.80;;;4.85;;
28353;SDS011;15603;50.878;8.036;2023-07-20T06:39:36;7.85;;;4.45;;
28353;SDS011;15603;50.878;8.036;2023-07-20T06:42:06;6.05;;;3.88;;
28353;SDS011;15603;50.878;8.036;2023-07-20T06:44:34;10.02;;;3.78;;
28353;SDS011;15603;50.878;8.036;2023-07-20T06:47:01;6.45;;;3.13;;
28353;SDS011;15603;50.878;8.036;2023-07-20T06:49:28;6.38;;;3.65;;
28353;SDS011;15603;50.878;8.036;2023-07-20T06:51:56;4.80;;;3.13;;
28353;SDS011;15603;50.878;8.036;2023-07-20T06:54:23;7.53;;;3.33;;
28353;SDS011;15603;50.878;8.036;2023-07-20T06:56:51;6.65;;;3.35;;
28353;SDS011;15603;50.878;8.036;2023-07-20T06:59:21;6.90;;;3.92;;
28353;SDS011;15603;50.878;8.036;2023-07-20T07:01:48;6.57;;;3.13;;
28353;SDS011;15603;50.878;8.036;2023-07-20T07:04:15;3.88;;;2.88;;
28353;SDS011;15603;50.878;8.036;2023-07-20T07:06:43;4.65;;;2.92;;
28353;SDS011;15603;50.878;8.036;2023-07-20T07:09:11;3.92;;;2.42;;
28353;SDS011;15603;50.878;8.036;2023-07-20T07:11:38;3.40;;;1.92;;
28353;SDS011;15603;50.878;8.036;2023-07-20T07:14:05;8.27;;;2.53;;
28353;SDS011;15603;50.878;8.036;2023-07-20T07:16:32;4.10;;;2.33;;
28353;SDS011;15603;50.878;8.036;2023-07-20T07:19:05;4.70;;;2.17;;
28353;SDS011;15603;50.878;8.036;2023-07-20T07:21:32;3.08;;;2.08;;
28353;SDS011;15603;50.878;8.036;2023-07-20T07:23:59;4.60;;;2.38;;
28353;SDS011;15603;50.878;8.036;2023-07-20T07:26:26;3.40;;;2.28;;
28353;SDS011;15603;50.878;8.036;2023-07-20T07:28:54;5.78;;;1.70;;
28353;SDS011;15603;50.878;8.036;2023-07-20T07:31:21;5.72;;;1.77;;
28353;SDS011;15603;50.878;8.036;2023-07-20T07:33:48;3.33;;;1.50;;
28353;SDS011;15603;50.878;8.036;2023-07-20T07:36:15;4.43;;;1.65;;
28353;SDS011;15603;50.878;8.036;2023-07-20T07:38:42;1.60;;;1.05;;
28353;SDS011;15603;50.878;8.036;2023-07-20T07:41:13;4.57;;;1.98;;
28353;SDS011;15603;50.878;8.036;2023-07-20T07:43:41;2.55;;;1.40;;
28353;SDS011;15603;50.878;8.036;2023-07-20T07:46:08;3.58;;;1.80;;
28353;SDS011;15603;50.878;8.036;2023-07-20T07:48:35;2.78;;;1.30;;
28353;SDS011;15603;50.878;8.036;2023-07-20T07:51:02;3.38;;;1.50;;
28353;SDS011;15603;50.878;8.036;2023-07-20T07:53:32;2.55;;;1.52;;
28353;SDS011;15603;50.878;8.036;2023-07-20T07:55:59;8.23;;;1.65;;
28353;SDS011;15603;50.878;8.036;2023-07-20T07:58:27;2.53;;;1.17;;
28353;SDS011;15603;50.878;8.036;2023-07-20T08:00:54;2.03;;;1.30;;
28353;SDS011;15603;50.878;8.036;2023-07-20T08:03:21;3.08;;;1.17;;
28353;SDS011;15603;50.878;8.036;2023-07-20T08:05:51;1.90;;;1.27;;
28353;SDS011;15603;50.878;8.036;2023-07-20T08:08:19;2.33;;;1.02;;
28353;SDS011;15603;50.878;8.036;2023-07-20T08:10:46;3.03;;;1.25;;
28353;SDS011;15603;50.878;8.036;2023-07-20T08:13:14;2.20;;;1.20;;
28353;SDS011;15603;50.878;8.036;2023-07-20T08:15:45;2.45;;;1.10;;
28353;SDS011;15603;50.878;8.036;2023-07-20T08:18:16;1.45;;;1.02;;
28353;SDS011;15603;50.878;8.036;2023-07-20T08:20:44;8.48;;;1.88;;
28353;SDS011;15603;50.878;8.036;2023-07-20T08:23:12;4.05;;;1.50;;
28353;SDS011;15603;50.878;8.036;2023-07-20T08:25:40;3.40;;;1.48;;
28353;SDS011;15603;50.878;8.036;2023-07-20T08:28:11;3.13;;;1.00;;
28353;SDS011;15603;50.878;8.036;2023-07-20T08:30:42;2.85;;;1.00;;
28353;SDS011;15603;50.878;8.036;2023-07-20T08:33:14;1.23;;;0.95;;
28353;SDS011;15603;50.878;8.036;2023-07-20T08:35:43;3.47;;;1.33;;
28353;SDS011;15603;50.878;8.036;2023-07-20T08:38:10;3.70;;;1.75;;
28353;SDS011;15603;50.878;8.036;2023-07-20T08:40:41;4.35;;;1.30;;
28353;SDS011;15603;50.878;8.036;2023-07-20T08:43:12;3.85;;;1.52;;
28353;SDS011;15603;50.878;8.036;2023-07-20T08:45:40;3.20;;;1.25;;
28353;SDS011;15603;50.878;8.036;2023-07-20T08:48:08;2.53;;;1.17;;
28353;SDS011;15603;50.878;8.036;2023-07-20T08:50:36;2.00;;;1.52;;
28353;SDS011;15603;50.878;8.036;2023-07-20T08:53:05;1.65;;;1.23;;
28353;SDS011;15603;50.878;8.036;2023-07-20T08:55:33;4.97;;;1.63;;
28353;SDS011;15603;50.878;8.036;2023-07-20T08:58:01;3.42;;;1.45;;
28353;SDS011;15603;50.878;8.036;2023-07-20T09:00:30;3.20;;;1.48;;
28353;SDS011;15603;50.878;8.036;2023-07-20T09:02:57;3.10;;;1.80;;
28353;SDS011;15603;50.878;8.036;2023-07-20T09:05:27;2.85;;;1.10;;
28353;SDS011;15603;50.878;8.036;2023-07-20T09:07:54;2.35;;;1.30;;
28353;SDS011;15603;50.878;8.036;2023-07-20T09:10:22;3.65;;;1.00;;
28353;SDS011;15603;50.878;8.036;2023-07-20T09:12:51;6.03;;;2.17;;
28353;SDS011;15603;50.878;8.036;2023-07-20T09:15:21;1.70;;;1.25;;
28353;SDS011;15603;50.878;8.036;2023-07-20T09:17:51;2.33;;;1.50;;
28353;SDS011;15603;50.878;8.036;2023-07-20T09:20:20;1.85;;;1.40;;
28353;SDS011;15603;50.878;8.036;2023-07-20T09:22:50;2.00;;;1.38;;
28353;SDS011;15603;50.878;8.036;2023-07-20T09:25:19;2.78;;;1.38;;
28353;SDS011;15603;50.878;8.036;2023-07-20T09:27:49;2.35;;;1.13;;
28353;SDS011;15603;50.878;8.036;2023-07-20T09:30:18;1.83;;;0.95;;
28353;SDS011;15603;50.878;8.036;2023-07-20T09:32:46;2.45;;;1.33;;
28353;SDS011;15603;50.878;8.036;2023-07-20T09:35:19;1.95;;;0.95;;
28353;SDS011;15603;50.878;8.036;2023-07-20T09:38:08;5.13;;;1.13;;
28353;SDS011;15603;50.878;8.036;2023-07-20T09:40:38;1.27;;;1.00;;
28353;SDS011;15603;50.878;8.036;2023-07-20T09:43:09;1.85;;;1.35;;
28353;SDS011;15603;50.878;8.036;2023-07-20T09:45:41;1.27;;;1.00;;
28353;SDS011;15603;50.878;8.036;2023-07-20T09:48:11;2.80;;;0.93;;
28353;SDS011;15603;50.878;8.036;2023-07-20T09:50:43;4.32;;;1.00;;
28353;SDS011;15603;50.878;8.036;2023-07-20T09:53:18;1.95;;;1.38;;
28353;SDS011;15603;50.878;8.036;2023-07-20T09:55:46;1.98;;;0.93;;
28353;SDS011;15603;50.878;8.036;2023-07-20T09:58:15;2.22;;;1.40;;
28353;SDS011;15603;50.878;8.036;2023-07-20T10:00:43;1.80;;;1.27;;
28353;SDS011;15603;50.878;8.036;2023-07-20T10:03:20;1.73;;;1.02;;
28353;SDS011;15603;50.878;8.036;2023-07-20T10:05:53;3.22;;;1.13;;
28353;SDS011;15603;50.878;8.036;2023-07-20T10:08:24;2.20;;;1.02;;
28353;SDS011;15603;50.878;8.036;2023-07-20T10:10:55;1.73;;;0.95;;
28353;SDS011;15603;50.878;8.036;2023-07-20T10:13:26;1.83;;;1.08;;
28353;SDS011;15603;50.878;8.036;2023-07-20T10:15:55;2.15;;;1.15;;
28353;SDS011;15603;50.878;8.036;2023-07-20T10:18:31;6.18;;;1.58;;
28353;SDS011;15603;50.878;8.036;2023-07-20T10:21:11;1.65;;;1.33;;
28353;SDS011;15603;50.878;8.036;2023-07-20T10:23:41;3.47;;;1.40;;
28353;SDS011;15603;50.878;8.036;2023-07-20T10:26:08;2.63;;;1.45;;
28353;SDS011;15603;50.878;8.036;2023-07-20T10:28:36;4.70;;;2.33;;
28353;SDS011;15603;50.878;8.036;2023-07-20T10:31:07;2.72;;;1.83;;
28353;SDS011;15603;50.878;8.036;2023-07-20T10:33:37;1.52;;;1.33;;
28353;SDS011;15603;50.878;8.036;2023-07-20T10:36:06;1.60;;;1.40;;
28353;SDS011;15603;50.878;8.036;2023-07-20T10:38:44;1.80;;;1.63;;
28353;SDS011;15603;50.878;8.036;2023-07-20T10:41:21;7.90;;;1.75;;
28353;SDS011;15603;50.878;8.036;2023-07-20T10:44:09;2.13;;;1.40;;
28353;SDS011;15603;50.878;8.036;2023-07-20T10:49:07;2.13;;;1.60;;
28353;SDS011;15603;50.878;8.036;2023-07-20T10:51:43;3.97;;;1.77;;
28353;SDS011;15603;50.878;8.036;2023-07-20T10:56:46;2.72;;;1.27;;
28353;SDS011;15603;50.878;8.036;2023-07-20T10:59:19;1.70;;;1.23;;
28353;SDS011;15603;50.878;8.036;2023-07-20T11:02:09;1.20;;;1.00;;
28353;SDS011;15603;50.878;8.036;2023-07-20T11:04:39;1.42;;;0.63;;
28353;SDS011;15603;50.878;8.036;2023-07-20T11:07:08;1.08;;;0.88;;
28353;SDS011;15603;50.878;8.036;2023-07-20T11:09:35;1.85;;;0.90;;
28353;SDS011;15603;50.878;8.036;2023-07-20T11:12:15;1.90;;;1.10;;
28353;SDS011;15603;50.878;8.036;2023-07-20T11:14:52;2.25;;;0.93;;
28353;SDS011;15603;50.878;8.036;2023-07-20T11:17:22;1.38;;;0.98;;
28353;SDS011;15603;50.878;8.036;2023-07-20T11:19:57;1.35;;;0.70;;
28353;SDS011;15603;50.878;8.036;2023-07-20T11:22:31;0.98;;;0.63;;
28353;SDS011;15603;50.878;8.036;2023-07-20T11:24:58;1.75;;;0.95;;
28353;SDS011;15603;50.878;8.036;2023-07-20T11:27:25;2.40;;;0.88;;
28353;SDS011;15603;50.878;8.036;2023-07-20T11:29:53;0.80;;;0.80;;
28353;SDS011;15603;50.878;8.036;2023-07-20T11:32:21;0.95;;;0.73;;
28353;SDS011;15603;50.878;8.036;2023-07-20T11:34:49;1.75;;;0.57;;
28353;SDS011;15603;50.878;8.036;2023-07-20T11:37:16;2.00;;;1.33;;
28353;SDS011;15603;50.878;8.036;2023-07-20T11:39:45;2.05;;;1.65;;
28353;SDS011;15603;50.878;8.036;2023-07-20T11:42:13;2.28;;;1.50;;
28353;SDS011;15603;50.878;8.036;2023-07-20T11:45:03;4.53;;;1.27;;
28353;SDS011;15603;50.878;8.036;2023-07-20T11:50:03;2.58;;;1.45;;
28353;SDS011;15603;50.878;8.036;2023-07-20T11:52:31;2.25;;;1.50;;
28353;SDS011;15603;50.878;8.036;2023-07-20T11:54:58;3.33;;;1.90;;
28353;SDS011;15603;50.878;8.036;2023-07-20T11:57:25;1.52;;;1.30;;
28353;SDS011;15603;50.878;8.036;2023-07-20T11:59:54;2.05;;;1.33;;
28353;SDS011;15603;50.878;8.036;2023-07-20T12:02:24;2.90;;;1.30;;
28353;SDS011;15603;50.878;8.036;2023-07-20T12:04:54;1.42;;;0.90;;
28353;SDS011;15603;50.878;8.036;2023-07-20T12:07:22;1.30;;;0.75;;
28353;SDS011;15603;50.878;8.036;2023-07-20T12:10:06;0.98;;;0.85;;
28353;SDS011;15603;50.878;8.036;2023-07-20T12:12:43;1.52;;;0.85;;
28353;SDS011;15603;50.878;8.036;2023-07-20T12:15:14;1.60;;;0.80;;
28353;SDS011;15603;50.878;8.036;2023-07-20T12:17:53;2.55;;;0.93;;
28353;SDS011;15603;50.878;8.036;2023-07-20T12:22:58;0.75;;;0.60;;
28353;SDS011;15603;50.878;8.036;2023-07-20T12:28:00;1.75;;;0.70;;
28353;SDS011;15603;50.878;8.036;2023-07-20T12:30:29;0.88;;;0.50;;
28353;SDS011;15603;50.878;8.036;2023-07-20T12:32:56;0.63;;;0.50;;
28353;SDS011;15603;50.878;8.036;2023-07-20T12:35:23;2.15;;;0.80;;
28353;SDS011;15603;50.878;8.036;2023-07-20T12:37:51;0.80;;;0.75;;
28353;SDS011;15603;50.878;8.036;2023-07-20T12:40:18;1.70;;;0.60;;
28353;SDS011;15603;50.878;8.036;2023-07-20T12:42:45;1.88;;;0.70;;
28353;SDS011;15603;50.878;8.036;2023-07-20T12:45:13;1.05;;;0.88;;
28353;SDS011;15603;50.878;8.036;2023-07-20T12:47:40;1.33;;;0.90;;
28353;SDS011;15603;50.878;8.036;2023-07-20T12:50:10;2.35;;;1.45;;
28353;SDS011;15603;50.878;8.036;2023-07-20T12:52:38;3.60;;;1.75;;
28353;SDS011;15603;50.878;8.036;2023-07-20T12:55:06;2.15;;;0.85;;
28353;SDS011;15603;50.878;8.036;2023-07-20T12:57:35;1.70;;;1.00;;
28353;SDS011;15603;50.878;8.036;2023-07-20T13:00:04;0.85;;;0.70;;
28353;SDS011;15603;50.878;8.036;2023-07-20T13:02:35;2.08;;;0.85;;
28353;SDS011;15603;50.878;8.036;2023-07-20T13:05:03;2.60;;;0.52;;
28353;SDS011;15603;50.878;8.036;2023-07-20T13:07:31;1.30;;;0.50;;
28353;SDS011;15603;50.878;8.036;2023-07-20T13:10:01;0.60;;;0.52;;
28353;SDS011;15603;50.878;8.036;2023-07-20T13:12:31;0.75;;;0.70;;
28353;SDS011;15603;50.878;8.036;2023-07-20T13:15:00;1.23;;;0.50;;
28353;SDS011;15603;50.878;8.036;2023-07-20T13:17:29;1.75;;;1.05;;
28353;SDS011;15603;50.878;8.036;2023-07-20T13:19:56;0.80;;;0.50;;
28353;SDS011;15603;50.878;8.036;2023-07-20T13:22:23;1.92;;;0.40;;
28353;SDS011;15603;50.878;8.036;2023-07-20T13:24:51;0.73;;;0.60;;
28353;SDS011;15603;50.878;8.036;2023-07-20T13:27:19;0.50;;;0.50;;
28353;SDS011;15603;50.878;8.036;2023-07-20T13:29:46;0.43;;;0.43;;
28353;SDS011;15603;50.878;8.036;2023-07-20T13:32:14;1.80;;;0.55;;
28353;SDS011;15603;50.878;8.036;2023-07-20T13:34:42;0.73;;;0.50;;
28353;SDS011;15603;50.878;8.036;2023-07-20T13:37:11;0.50;;;0.50;;
28353;SDS011;15603;50.878;8.036;2023-07-20T13:39:39;3.13;;;0.77;;
28353;SDS011;15603;50.878;8.036;2023-07-20T13:42:06;0.50;;;0.30;;
28353;SDS011;15603;50.878;8.036;2023-07-20T13:44:38;1.75;;;0.70;;
28353;SDS011;15603;50.878;8.036;2023-07-20T13:47:05;1.33;;;0.60;;
28353;SDS011;15603;50.878;8.036;2023-07-20T13:49:35;1.48;;;0.70;;
28353;SDS011;15603;50.878;8.036;2023-07-20T13:52:12;0.68;;;0.52;;
28353;SDS011;15603;50.878;8.036;2023-07-20T13:54:42;0.50;;;0.45;;
28353;SDS011;15603;50.878;8.036;2023-07-20T13:57:12;0.52;;;0.40;;
28353;SDS011;15603;50.878;8.036;2023-07-20T13:59:41;1.38;;;0.50;;
28353;SDS011;15603;50.878;8.036;2023-07-20T14:02:08;0.30;;;0.30;;
28353;SDS011;15603;50.878;8.036;2023-07-20T14:04:38;0.63;;;0.25;;
28353;SDS011;15603;50.878;8.036;2023-07-20T14:07:06;0.88;;;0.40;;
28353;SDS011;15603;50.878;8.036;2023-07-20T14:09:33;1.42;;;0.50;;
28353;SDS011;15603;50.878;8.036;2023-07-20T14:12:00;1.13;;;0.50;;
28353;SDS011;15603;50.878;8.036;2023-07-20T14:14:30;1.40;;;0.50;;
28353;SDS011;15603;50.878;8.036;2023-07-20T14:16:57;0.85;;;0.30;;
28353;SDS011;15603;50.878;8.036;2023-07-20T14:19:24;0.30;;;0.30;;
28353;SDS011;15603;50.878;8.036;2023-07-20T14:21:51;1.75;;;0.40;;
28353;SDS011;15603;50.878;8.036;2023-07-20T14:24:19;3.42;;;0.60;;
28353;SDS011;15603;50.878;8.036;2023-07-20T14:26:46;0.40;;;0.40;;
28353;SDS011;15603;50.878;8.036;2023-07-20T14:29:18;0.38;;;0.30;;
28353;SDS011;15603;50.878;8.036;2023-07-20T14:31:45;0.63;;;0.40;;
28353;SDS011;15603;50.878;8.036;2023-07-20T14:34:17;0.80;;;0.50;;
28353;SDS011;15603;50.878;8.036;2023-07-20T14:36:45;2.30;;;0.30;;
28353;SDS011;15603;50.878;8.036;2023-07-20T14:39:12;0.50;;;0.20;;
28353;SDS011;15603;50.878;8.036;2023-07-20T14:41:40;1.10;;;0.65;;
28353;SDS011;15603;50.878;8.036;2023-07-20T14:44:07;1.15;;;0.60;;
28353;SDS011;15603;50.878;8.036;2023-07-20T14:46:34;0.40;;;0.40;;
28353;SDS011;15603;50.878;8.036;2023-07-20T14:49:01;0.50;;;0.50;;
28353;SDS011;15603;50.878;8.036;2023-07-20T14:51:29;0.20;;;0.20;;
28353;SDS011;15603;50.878;8.036;2023-07-20T14:54:02;0.38;;;0.38;;
28353;SDS011;15603;50.878;8.036;2023-07-20T14:56:29;1.08;;;0.60;;
28353;SDS011;15603;50.878;8.036;2023-07-20T14:58:56;0.45;;;0.38;;
28353;SDS011;15603;50.878;8.036;2023-07-20T15:01:25;0.90;;;0.47;;
28353;SDS011;15603;50.878;8.036;2023-07-20T15:03:52;1.10;;;0.60;;
28353;SDS011;15603;50.878;8.036;2023-07-20T15:06:23;0.70;;;0.60;;
28353;SDS011;15603;50.878;8.036;2023-07-20T15:08:51;0.63;;;0.57;;
28353;SDS011;15603;50.878;8.036;2023-07-20T15:11:18;0.68;;;0.52;;
28353;SDS011;15603;50.878;8.036;2023-07-20T15:13:45;0.70;;;0.60;;
28353;SDS011;15603;50.878;8.036;2023-07-20T15:16:12;0.65;;;0.52;;
28353;SDS011;15603;50.878;8.036;2023-07-20T15:18:39;0.47;;;0.40;;
28353;SDS011;15603;50.878;8.036;2023-07-20T15:21:14;0.73;;;0.60;;